sensor_id;sensor_type;location;lat;lon;timestamp;pressure;altitude;pressure_sealevel;temperature;humidity
15314;BME280;7757;52.626;4.746;2023-01-29T00:01:08;102803.41;;;14.70;64.04
15314;BME280;7757;52.626;4.746;2023-01-29T00:03:35;102799.03;;;14.69;64.27
15314;BME280;7757;52.626;4.746;2023-01-29T00:06:05;102797.50;;;14.67;64.52
15314;BME280;7757;52.626;4.746;2023-01-29T00:08:33;102794.97;;;14.65;64.32
15314;BME280;7757;52.626;4.746;2023-01-29T00:11:00;102786.03;;;14.65;63.66
15314;BME280;7757;52.626;4.746;2023-01-29T00:13:28;102782.34;;;14.66;64.97
15314;BME280;7757;52.626;4.746;2023-01-29T00:15:55;102772.56;;;14.65;64.58
15314;BME280;7757;52.626;4.746;2023-01-29T00:18:22;102765.53;;;14.64;63.62
15314;BME280;7757;52.626;4.746;2023-01-29T00:20:48;102771.75;;;14.64;64.21
15314;BME280;7757;52.626;4.746;2023-01-29T00:23:19;102772.56;;;14.65;63.94
15314;BME280;7757;52.626;4.746;2023-01-29T00:25:46;102782.69;;;14.63;64.23
15314;BME280;7757;52.626;4.746;2023-01-29T00:28:13;102783.69;;;14.62;64.62
15314;BME280;7757;52.626;4.746;2023-01-29T00:30:40;102784.72;;;14.69;64.63
15314;BME280;7757;52.626;4.746;2023-01-29T00:33:07;102786.03;;;14.65;64.53
15314;BME280;7757;52.626;4.746;2023-01-29T00:35:33;102783.69;;;14.62;65.01
15314;BME280;7757;52.626;4.746;2023-01-29T00:38:00;102783.69;;;14.62;64.64
15314;BME280;7757;52.626;4.746;2023-01-29T00:40:28;102781.84;;;14.62;64.35
15314;BME280;7757;52.626;4.746;2023-01-29T00:43:15;102776.78;;;14.59;64.48
15314;BME280;7757;52.626;4.746;2023-01-29T00:46:00;102771.38;;;14.59;64.13
15314;BME280;7757;52.626;4.746;2023-01-29T00:48:26;102770.72;;;14.57;63.90
15314;BME280;7757;52.626;4.746;2023-01-29T00:50:53;102779.47;;;14.59;64.33
15314;BME280;7757;52.626;4.746;2023-01-29T00:53:19;102774.09;;;14.59;63.84
15314;BME280;7757;52.626;4.746;2023-01-29T00:55:48;102769.72;;;14.58;65.15
15314;BME280;7757;52.626;4.746;2023-01-29T00:58:14;102777.94;;;14.57;64.56
15314;BME280;7757;52.626;4.746;2023-01-29T01:00:46;102777.81;;;14.58;65.08
15314;BME280;7757;52.626;4.746;2023-01-29T01:03:13;102777.81;;;14.58;64.97
15314;BME280;7757;52.626;4.746;2023-01-29T01:05:39;102781.50;;;14.57;63.82
15314;BME280;7757;52.626;4.746;2023-01-29T01:08:07;102785.34;;;14.55;63.94
15314;BME280;7757;52.626;4.746;2023-01-29T01:11:00;102789.91;;;14.54;64.30
15314;BME280;7757;52.626;4.746;2023-01-29T01:13:26;102776.75;;;14.51;64.66
15314;BME280;7757;52.626;4.746;2023-01-29T01:15:53;102783.66;;;14.53;64.76
15314;BME280;7757;52.626;4.746;2023-01-29T01:18:20;102782.81;;;14.53;64.14
15314;BME280;7757;52.626;4.746;2023-01-29T01:20:47;102777.75;;;14.50;64.77
15314;BME280;7757;52.626;4.746;2023-01-29T01:23:16;102775.75;;;14.52;64.44
15314;BME280;7757;52.626;4.746;2023-01-29T01:25:43;102775.91;;;14.50;64.39
15314;BME280;7757;52.626;4.746;2023-01-29T01:28:11;102775.06;;;14.50;64.18
15314;BME280;7757;52.626;4.746;2023-01-29T01:30:38;102767.00;;;14.50;64.51
15314;BME280;7757;52.626;4.746;2023-01-29T01:33:05;102767.16;;;14.48;64.39
15314;BME280;7757;52.626;4.746;2023-01-29T01:35:31;102769.00;;;14.48;65.12
15314;BME280;7757;52.626;4.746;2023-01-29T01:37:58;102766.16;;;14.49;64.34
15314;BME280;7757;52.626;4.746;2023-01-29T01:40:25;102769.19;;;14.46;64.36
15314;BME280;7757;52.626;4.746;2023-01-29T01:42:54;102768.16;;;14.47;64.22
15314;BME280;7757;52.626;4.746;2023-01-29T01:45:25;102760.09;;;14.47;64.80
15314;BME280;7757;52.626;4.746;2023-01-29T01:47:55;102758.56;;;14.45;64.46
15314;BME280;7757;52.626;4.746;2023-01-29T01:50:27;102753.03;;;14.46;64.21
15314;BME280;7757;52.626;4.746;2023-01-29T01:52:58;102761.94;;;14.47;64.59
15314;BME280;7757;52.626;4.746;2023-01-29T01:55:27;102752.00;;;14.47;64.17
15314;BME280;7757;52.626;4.746;2023-01-29T01:57:56;102756.72;;;14.45;64.01
15314;BME280;7757;52.626;4.746;2023-01-29T02:00:27;102758.75;;;14.43;65.00
15314;BME280;7757;52.626;4.746;2023-01-29T02:02:53;102769.34;;;14.45;64.24
15314;BME280;7757;52.626;4.746;2023-01-29T02:05:38;102767.63;;;14.44;64.23
15314;BME280;7757;52.626;4.746;2023-01-29T02:08:27;102764.94;;;14.44;64.58
15314;BME280;7757;52.626;4.746;2023-01-29T02:11:13;102762.25;;;14.44;63.58
15314;BME280;7757;52.626;4.746;2023-01-29T02:13:39;102754.38;;;14.42;64.08
15314;BME280;7757;52.626;4.746;2023-01-29T02:16:08;102765.97;;;14.43;64.35
15314;BME280;7757;52.626;4.746;2023-01-29T02:18:35;102759.91;;;14.41;64.88
15314;BME280;7757;52.626;4.746;2023-01-29T02:21:24;102759.75;;;14.42;64.65
15314;BME280;7757;52.626;4.746;2023-01-29T02:24:24;102755.34;;;14.41;64.10
15314;BME280;7757;52.626;4.746;2023-01-29T02:27:06;102745.44;;;14.42;64.69
15314;BME280;7757;52.626;4.746;2023-01-29T02:29:43;102752.84;;;14.40;64.19
15314;BME280;7757;52.626;4.746;2023-01-29T02:32:21;102745.44;;;14.42;64.01
15314;BME280;7757;52.626;4.746;2023-01-29T02:35:05;102745.63;;;14.40;64.12
15314;BME280;7757;52.626;4.746;2023-01-29T02:37:59;102744.78;;;14.40;64.61
15314;BME280;7757;52.626;4.746;2023-01-29T02:40:30;102736.50;;;14.41;63.99
15314;BME280;7757;52.626;4.746;2023-01-29T02:43:06;102722.53;;;14.38;64.29
15314;BME280;7757;52.626;4.746;2023-01-29T02:45:42;102739.38;;;14.40;63.85
15314;BME280;7757;52.626;4.746;2023-01-29T02:48:17;102728.09;;;14.36;63.73
15314;BME280;7757;52.626;4.746;2023-01-29T02:50:48;102737.03;;;14.37;64.49
15314;BME280;7757;52.626;4.746;2023-01-29T02:53:24;102731.63;;;14.37;64.49
15314;BME280;7757;52.626;4.746;2023-01-29T02:55:57;102724.41;;;14.37;64.25
15314;BME280;7757;52.626;4.746;2023-01-29T02:58:29;102720.88;;;14.37;63.78
15314;BME280;7757;52.626;4.746;2023-01-29T03:01:01;102719.50;;;14.33;65.01
15314;BME280;7757;52.626;4.746;2023-01-29T03:03:33;102727.56;;;14.33;65.01
15314;BME280;7757;52.626;4.746;2023-01-29T03:06:06;102724.03;;;14.32;65.32
15314;BME280;7757;52.626;4.746;2023-01-29T03:08:39;102716.66;;;14.34;64.64
15314;BME280;7757;52.626;4.746;2023-01-29T03:11:10;102712.94;;;14.35;64.13
15314;BME280;7757;52.626;4.746;2023-01-29T03:13:42;102701.81;;;14.30;64.08
15314;BME280;7757;52.626;4.746;2023-01-29T03:16:20;102696.13;;;14.33;65.38
15314;BME280;7757;52.626;4.746;2023-01-29T03:18:53;102684.50;;;14.33;64.29
15314;BME280;7757;52.626;4.746;2023-01-29T03:21:24;102689.91;;;14.33;64.34
15314;BME280;7757;52.626;4.746;2023-01-29T03:24:12;102699.81;;;14.32;64.33
15314;BME280;7757;52.626;4.746;2023-01-29T03:27:01;102695.44;;;14.31;64.00
15314;BME280;7757;52.626;4.746;2023-01-29T03:29:48;102703.50;;;14.31;64.77
15314;BME280;7757;52.626;4.746;2023-01-29T03:32:34;102694.44;;;14.32;64.55
15314;BME280;7757;52.626;4.746;2023-01-29T03:35:05;102699.13;;;14.30;64.59
15314;BME280;7757;52.626;4.746;2023-01-29T03:37:36;102694.59;;;14.31;65.07
15314;BME280;7757;52.626;4.746;2023-01-29T03:40:06;102692.88;;;14.30;64.50
15314;BME280;7757;52.626;4.746;2023-01-29T03:42:41;102697.59;;;14.28;64.74
15314;BME280;7757;52.626;4.746;2023-01-29T03:45:15;102700.97;;;14.30;65.48
15314;BME280;7757;52.626;4.746;2023-01-29T03:47:53;102700.28;;;14.28;64.73
15314;BME280;7757;52.626;4.746;2023-01-29T03:50:31;102689.53;;;14.28;65.25
15314;BME280;7757;52.626;4.746;2023-01-29T03:53:05;102677.91;;;14.27;64.64
15314;BME280;7757;52.626;4.746;2023-01-29T03:55:37;102669.50;;;14.22;64.73
15314;BME280;7757;52.626;4.746;2023-01-29T03:58:15;102675.22;;;14.27;64.18
15314;BME280;7757;52.626;4.746;2023-01-29T04:00:51;102674.56;;;14.25;65.18
15314;BME280;7757;52.626;4.746;2023-01-29T04:03:22;102672.72;;;14.26;64.59
15314;BME280;7757;52.626;4.746;2023-01-29T04:05:54;102673.53;;;14.26;64.27
15314;BME280;7757;52.626;4.746;2023-01-29T04:08:26;102674.38;;;14.27;64.79
15314;BME280;7757;52.626;4.746;2023-01-29T04:10:56;102672.72;;;14.26;64.45
15314;BME280;7757;52.626;4.746;2023-01-29T04:13:25;102675.53;;;14.24;65.43
15314;BME280;7757;52.626;4.746;2023-01-29T04:15:56;102671.00;;;14.25;65.51
15314;BME280;7757;52.626;4.746;2023-01-29T04:18:26;102668.47;;;14.23;64.96
15314;BME280;7757;52.626;4.746;2023-01-29T04:20:53;102663.28;;;14.22;64.07
15314;BME280;7757;52.626;4.746;2023-01-29T04:23:21;102649.63;;;14.23;64.81
15314;BME280;7757;52.626;4.746;2023-01-29T04:25:53;102639.91;;;14.22;64.07
15314;BME280;7757;52.626;4.746;2023-01-29T04:28:27;102636.50;;;14.20;64.67
15314;BME280;7757;52.626;4.746;2023-01-29T04:31:04;102639.19;;;14.20;64.50
15314;BME280;7757;52.626;4.746;2023-01-29T04:33:38;102631.97;;;14.21;63.65
15314;BME280;7757;52.626;4.746;2023-01-29T04:36:19;102625.59;;;14.22;64.78
15314;BME280;7757;52.626;4.746;2023-01-29T04:38:59;102618.53;;;14.21;64.52
15314;BME280;7757;52.626;4.746;2023-01-29T04:41:30;102620.34;;;14.20;64.53
15314;BME280;7757;52.626;4.746;2023-01-29T04:44:02;102617.53;;;14.22;64.48
15314;BME280;7757;52.626;4.746;2023-01-29T04:46:36;102620.34;;;14.20;63.82
15314;BME280;7757;52.626;4.746;2023-01-29T04:49:17;102624.09;;;14.19;64.54
15314;BME280;7757;52.626;4.746;2023-01-29T04:51:50;102618.84;;;14.18;64.28
15314;BME280;7757;52.626;4.746;2023-01-29T04:54:27;102623.22;;;14.19;65.13
15314;BME280;7757;52.626;4.746;2023-01-29T04:57:02;102623.38;;;14.17;64.22
15314;BME280;7757;52.626;4.746;2023-01-29T04:59:34;102624.09;;;14.19;64.26
15314;BME280;7757;52.626;4.746;2023-01-29T05:02:03;102620.03;;;14.15;64.65
15314;BME280;7757;52.626;4.746;2023-01-29T05:04:33;102627.09;;;14.16;63.96
15314;BME280;7757;52.626;4.746;2023-01-29T05:07:02;102620.88;;;14.16;64.52
15314;BME280;7757;52.626;4.746;2023-01-29T05:09:30;102611.97;;;14.15;64.01
15314;BME280;7757;52.626;4.746;2023-01-29T05:11:59;102613.66;;;14.16;64.44
15314;BME280;7757;52.626;4.746;2023-01-29T05:14:27;102613.66;;;14.16;64.45
15314;BME280;7757;52.626;4.746;2023-01-29T05:16:57;102614.50;;;14.17;63.76
15314;BME280;7757;52.626;4.746;2023-01-29T05:19:27;102610.25;;;14.14;64.27
15314;BME280;7757;52.626;4.746;2023-01-29T05:21:56;102621.03;;;14.14;64.78
15314;BME280;7757;52.626;4.746;2023-01-29T05:24:25;102618.50;;;14.13;64.96
15314;BME280;7757;52.626;4.746;2023-01-29T05:26:53;102623.91;;;14.13;63.87
15314;BME280;7757;52.626;4.746;2023-01-29T05:29:38;102623.72;;;14.14;64.79
15314;BME280;7757;52.626;4.746;2023-01-29T05:32:07;102614.97;;;14.12;64.29
15314;BME280;7757;52.626;4.746;2023-01-29T05:34:33;102611.28;;;14.13;64.13
15314;BME280;7757;52.626;4.746;2023-01-29T05:37:02;102618.50;;;14.13;63.56
15314;BME280;7757;52.626;4.746;2023-01-29T05:39:28;102606.91;;;14.12;64.63
15314;BME280;7757;52.626;4.746;2023-01-29T05:41:55;102607.75;;;14.13;64.38
15314;BME280;7757;52.626;4.746;2023-01-29T05:44:21;102612.28;;;14.12;65.46
15314;BME280;7757;52.626;4.746;2023-01-29T05:46:49;102608.75;;;14.12;64.75
15314;BME280;7757;52.626;4.746;2023-01-29T05:49:16;102602.38;;;14.13;64.97
15314;BME280;7757;52.626;4.746;2023-01-29T05:51:44;102592.59;;;14.12;65.19
15314;BME280;7757;52.626;4.746;2023-01-29T05:54:13;102599.16;;;14.09;64.39
15314;BME280;7757;52.626;4.746;2023-01-29T05:56:40;102588.06;;;14.12;65.10
15314;BME280;7757;52.626;4.746;2023-01-29T05:59:06;102576.13;;;14.07;64.58
15314;BME280;7757;52.626;4.746;2023-01-29T06:01:33;102564.50;;;14.06;64.52
15314;BME280;7757;52.626;4.746;2023-01-29T06:03:59;102566.22;;;14.07;65.21
15314;BME280;7757;52.626;4.746;2023-01-29T06:06:26;102554.28;;;14.10;64.23
15314;BME280;7757;52.626;4.746;2023-01-29T06:08:53;102543.69;;;14.08;64.10
15314;BME280;7757;52.626;4.746;2023-01-29T06:11:22;102544.69;;;14.07;65.22
15314;BME280;7757;52.626;4.746;2023-01-29T06:13:49;102546.38;;;14.08;64.87
15314;BME280;7757;52.626;4.746;2023-01-29T06:16:17;102544.50;;;14.09;64.12
15314;BME280;7757;52.626;4.746;2023-01-29T06:18:43;102539.47;;;14.06;65.12
15314;BME280;7757;52.626;4.746;2023-01-29T06:21:11;102537.78;;;14.05;64.03
15314;BME280;7757;52.626;4.746;2023-01-29T06:23:39;102553.94;;;14.05;64.35
15314;BME280;7757;52.626;4.746;2023-01-29T06:26:07;102553.94;;;14.05;64.20
15314;BME280;7757;52.626;4.746;2023-01-29T06:28:36;102554.41;;;14.00;65.00
15314;BME280;7757;52.626;4.746;2023-01-29T06:31:03;102545.50;;;13.99;64.34
15314;BME280;7757;52.626;4.746;2023-01-29T06:33:30;102550.88;;;13.99;64.81
15314;BME280;7757;52.626;4.746;2023-01-29T06:35:57;102549.88;;;14.01;64.64
15314;BME280;7757;52.626;4.746;2023-01-29T06:38:25;102542.47;;;14.03;64.65
15314;BME280;7757;52.626;4.746;2023-01-29T06:40:52;102548.38;;;14.06;64.90
15314;BME280;7757;52.626;4.746;2023-01-29T06:43:19;102544.69;;;14.07;65.42
15314;BME280;7757;52.626;4.746;2023-01-29T06:45:50;102542.84;;;14.16;64.56
15314;BME280;7757;52.626;4.746;2023-01-29T06:48:17;102542.00;;;14.15;65.44
15314;BME280;7757;52.626;4.746;2023-01-29T06:50:43;102536.63;;;14.15;64.97
15314;BME280;7757;52.626;4.746;2023-01-29T06:53:11;102542.50;;;14.19;64.26
15314;BME280;7757;52.626;4.746;2023-01-29T06:55:38;102537.78;;;14.21;64.49
15314;BME280;7757;52.626;4.746;2023-01-29T06:58:05;102529.56;;;14.22;64.88
15314;BME280;7757;52.626;4.746;2023-01-29T07:00:32;102539.16;;;14.25;64.13
15314;BME280;7757;52.626;4.746;2023-01-29T07:03:01;102526.34;;;14.27;64.64
15314;BME280;7757;52.626;4.746;2023-01-29T07:05:28;102529.75;;;14.29;65.03
15314;BME280;7757;52.626;4.746;2023-01-29T07:07:54;102527.84;;;14.29;65.37
15314;BME280;7757;52.626;4.746;2023-01-29T07:10:22;102531.09;;;14.33;64.41
15314;BME280;7757;52.626;4.746;2023-01-29T07:12:48;102529.06;;;14.35;64.86
15314;BME280;7757;52.626;4.746;2023-01-29T07:15:15;102530.59;;;14.37;64.27
15314;BME280;7757;52.626;4.746;2023-01-29T07:17:54;102526.03;;;14.38;64.66
15314;BME280;7757;52.626;4.746;2023-01-29T07:20:23;102534.97;;;14.38;64.39
15314;BME280;7757;52.626;4.746;2023-01-29T07:22:49;102535.47;;;14.42;63.84
15314;BME280;7757;52.626;4.746;2023-01-29T07:25:16;102534.13;;;14.46;64.49
15314;BME280;7757;52.626;4.746;2023-01-29T07:27:42;102539.50;;;14.46;65.21
15314;BME280;7757;52.626;4.746;2023-01-29T07:30:10;102526.91;;;14.46;65.00
15314;BME280;7757;52.626;4.746;2023-01-29T07:32:37;102521.19;;;14.49;64.32
15314;BME280;7757;52.626;4.746;2023-01-29T07:35:04;102516.59;;;14.50;64.65
15314;BME280;7757;52.626;4.746;2023-01-29T07:37:32;102508.19;;;14.53;64.33
15314;BME280;7757;52.626;4.746;2023-01-29T07:39:59;102515.25;;;14.54;64.24
15314;BME280;7757;52.626;4.746;2023-01-29T07:42:25;102505.69;;;14.51;64.36
15314;BME280;7757;52.626;4.746;2023-01-29T07:44:52;102515.06;;;14.56;65.18
15314;BME280;7757;52.626;4.746;2023-01-29T07:47:18;102503.50;;;14.55;64.58
15314;BME280;7757;52.626;4.746;2023-01-29T07:49:45;102501.63;;;14.56;64.49
15314;BME280;7757;52.626;4.746;2023-01-29T07:52:12;102505.00;;;14.58;64.42
15314;BME280;7757;52.626;4.746;2023-01-29T07:54:39;102502.13;;;14.59;64.74
15314;BME280;7757;52.626;4.746;2023-01-29T07:57:06;102506.66;;;14.59;64.39
15314;BME280;7757;52.626;4.746;2023-01-29T07:59:33;102499.44;;;14.59;64.10
15314;BME280;7757;52.626;4.746;2023-01-29T08:01:59;102497.75;;;14.66;65.12
15314;BME280;7757;52.626;4.746;2023-01-29T08:04:26;102494.84;;;14.68;64.68
15314;BME280;7757;52.626;4.746;2023-01-29T08:06:53;102487.63;;;14.68;65.20
15314;BME280;7757;52.626;4.746;2023-01-29T08:09:19;102495.34;;;14.71;64.38
15314;BME280;7757;52.626;4.746;2023-01-29T08:11:47;102493.47;;;14.80;64.62
15314;BME280;7757;52.626;4.746;2023-01-29T08:14:14;102498.53;;;14.83;64.59
15314;BME280;7757;52.626;4.746;2023-01-29T08:16:41;102499.56;;;14.82;63.27
15314;BME280;7757;52.626;4.746;2023-01-29T08:19:07;102491.94;;;14.85;63.55
15314;BME280;7757;52.626;4.746;2023-01-29T08:21:34;102490.09;;;14.86;63.64
15314;BME280;7757;52.626;4.746;2023-01-29T08:24:01;102490.41;;;14.91;64.17
15314;BME280;7757;52.626;4.746;2023-01-29T08:26:27;102487.59;;;14.84;64.62
15314;BME280;7757;52.626;4.746;2023-01-29T08:28:55;102491.63;;;14.80;64.69
15314;BME280;7757;52.626;4.746;2023-01-29T08:31:22;102494.84;;;14.76;64.11
15314;BME280;7757;52.626;4.746;2023-01-29T08:33:48;102473.81;;;14.71;65.00
15314;BME280;7757;52.626;4.746;2023-01-29T08:36:15;102483.25;;;14.75;63.79
15314;BME280;7757;52.626;4.746;2023-01-29T08:38:42;102479.69;;;14.75;63.71
15314;BME280;7757;52.626;4.746;2023-01-29T08:41:09;102480.56;;;14.75;63.99
15314;BME280;7757;52.626;4.746;2023-01-29T08:43:35;102473.66;;;14.73;64.30
15314;BME280;7757;52.626;4.746;2023-01-29T08:46:04;102481.91;;;14.71;64.66
15314;BME280;7757;52.626;4.746;2023-01-29T08:48:32;102476.50;;;14.71;63.92
15314;BME280;7757;52.626;4.746;2023-01-29T08:50:59;102480.38;;;14.69;64.03
15314;BME280;7757;52.626;4.746;2023-01-29T08:53:27;102473.81;;;14.71;63.68
15314;BME280;7757;52.626;4.746;2023-01-29T08:55:54;102479.19;;;14.71;64.54
15314;BME280;7757;52.626;4.746;2023-01-29T08:58:20;102474.00;;;14.70;63.82
15314;BME280;7757;52.626;4.746;2023-01-29T09:00:47;102479.19;;;14.71;64.32
15314;BME280;7757;52.626;4.746;2023-01-29T09:03:15;102480.88;;;14.72;64.29
15314;BME280;7757;52.626;4.746;2023-01-29T09:05:41;102484.94;;;14.68;63.48
15314;BME280;7757;52.626;4.746;2023-01-29T09:08:08;102486.63;;;14.69;63.63
15314;BME280;7757;52.626;4.746;2023-01-29T09:10:35;102478.53;;;14.69;64.49
15314;BME280;7757;52.626;4.746;2023-01-29T09:13:02;102477.53;;;14.70;64.03
15314;BME280;7757;52.626;4.746;2023-01-29T09:15:29;102475.00;;;14.69;64.16
15314;BME280;7757;52.626;4.746;2023-01-29T09:17:56;102463.00;;;14.79;64.18
15314;BME280;7757;52.626;4.746;2023-01-29T09:20:24;102469.38;;;14.86;64.28
15314;BME280;7757;52.626;4.746;2023-01-29T09:22:51;102465.00;;;14.93;64.33
15314;BME280;7757;52.626;4.746;2023-01-29T09:25:20;102467.69;;;14.93;64.18
15314;BME280;7757;52.626;4.746;2023-01-29T09:27:46;102468.38;;;14.87;64.07
15314;BME280;7757;52.626;4.746;2023-01-29T09:30:14;102458.97;;;14.83;63.25
15314;BME280;7757;52.626;4.746;2023-01-29T09:32:40;102448.88;;;14.77;63.35
15314;BME280;7757;52.626;4.746;2023-01-29T09:35:07;102450.72;;;14.77;64.03
15314;BME280;7757;52.626;4.746;2023-01-29T09:37:35;102446.88;;;14.71;63.58
15314;BME280;7757;52.626;4.746;2023-01-29T09:40:02;102443.34;;;14.71;64.66
15314;BME280;7757;52.626;4.746;2023-01-29T09:42:35;102428.22;;;14.70;63.99
15314;BME280;7757;52.626;4.746;2023-01-29T09:45:10;102432.56;;;14.79;63.93
15314;BME280;7757;52.626;4.746;2023-01-29T09:47:40;102438.09;;;14.77;63.78
15314;BME280;7757;52.626;4.746;2023-01-29T09:50:14;102435.28;;;14.71;64.23
15314;BME280;7757;52.626;4.746;2023-01-29T09:52:46;102433.41;;;14.71;64.50
15314;BME280;7757;52.626;4.746;2023-01-29T09:55:18;102436.97;;;14.72;63.39
15314;BME280;7757;52.626;4.746;2023-01-29T09:57:49;102438.16;;;14.69;63.50
15314;BME280;7757;52.626;4.746;2023-01-29T10:00:19;102429.41;;;14.67;64.07
15314;BME280;7757;52.626;4.746;2023-01-29T10:02:58;102425.34;;;14.71;63.97
15314;BME280;7757;52.626;4.746;2023-01-29T10:05:41;102426.50;;;14.77;63.01
15314;BME280;7757;52.626;4.746;2023-01-29T10:11:13;102434.25;;;14.72;63.55
15314;BME280;7757;52.626;4.746;2023-01-29T10:13:47;102438.66;;;14.65;64.10
15314;BME280;7757;52.626;4.746;2023-01-29T10:16:27;102441.53;;;14.63;63.57
15314;BME280;7757;52.626;4.746;2023-01-29T10:22:16;102434.97;;;14.66;63.47
15314;BME280;7757;52.626;4.746;2023-01-29T10:24:53;102425.69;;;14.68;64.57
15314;BME280;7757;52.626;4.746;2023-01-29T10:27:28;102408.88;;;14.66;63.77
15314;BME280;7757;52.626;4.746;2023-01-29T10:29:55;102420.25;;;14.76;63.16
15314;BME280;7757;52.626;4.746;2023-01-29T10:32:24;102419.75;;;14.81;63.93
15314;BME280;7757;52.626;4.746;2023-01-29T10:34:55;102409.50;;;14.76;63.62
15314;BME280;7757;52.626;4.746;2023-01-29T10:37:27;102409.03;;;14.73;63.20
15314;BME280;7757;52.626;4.746;2023-01-29T10:39:59;102410.78;;;14.88;64.28
15314;BME280;7757;52.626;4.746;2023-01-29T10:42:29;102402.00;;;14.94;64.54
15314;BME280;7757;52.626;4.746;2023-01-29T10:45:08;102393.13;;;14.86;64.77
15314;BME280;7757;52.626;4.746;2023-01-29T10:47:55;102388.28;;;14.81;64.86
15314;BME280;7757;52.626;4.746;2023-01-29T10:50:46;102386.59;;;14.80;64.32
15314;BME280;7757;52.626;4.746;2023-01-29T10:53:23;102374.31;;;14.78;64.94
15314;BME280;7757;52.626;4.746;2023-01-29T10:55:59;102383.72;;;14.82;64.85
15314;BME280;7757;52.626;4.746;2023-01-29T10:58:33;102382.22;;;14.79;64.64
15314;BME280;7757;52.626;4.746;2023-01-29T11:01:02;102380.19;;;14.81;65.22
15314;BME280;7757;52.626;4.746;2023-01-29T11:03:30;102372.97;;;14.82;64.76
15314;BME280;7757;52.626;4.746;2023-01-29T11:06:06;102366.03;;;14.87;64.61
15314;BME280;7757;52.626;4.746;2023-01-29T11:08:39;102358.28;;;14.84;65.52
15314;BME280;7757;52.626;4.746;2023-01-29T11:11:12;102362.84;;;14.84;65.31
15314;BME280;7757;52.626;4.746;2023-01-29T11:13:45;102352.72;;;14.86;65.25
15314;BME280;7757;52.626;4.746;2023-01-29T11:16:12;102356.91;;;14.88;65.29
15314;BME280;7757;52.626;4.746;2023-01-29T11:18:56;102352.56;;;14.87;64.85
15314;BME280;7757;52.626;4.746;2023-01-29T11:21:25;102356.25;;;14.86;64.80
15314;BME280;7757;52.626;4.746;2023-01-29T11:24:05;102342.63;;;14.88;65.05
15314;BME280;7757;52.626;4.746;2023-01-29T11:26:37;102327.97;;;14.90;65.01
15314;BME280;7757;52.626;4.746;2023-01-29T11:29:04;102329.31;;;14.86;64.29
15314;BME280;7757;52.626;4.746;2023-01-29T11:31:44;102326.13;;;14.83;65.35
15314;BME280;7757;52.626;4.746;2023-01-29T11:34:19;102318.91;;;14.83;65.25
15314;BME280;7757;52.626;4.746;2023-01-29T11:36:55;102319.53;;;14.85;64.50
15314;BME280;7757;52.626;4.746;2023-01-29T11:39:24;102301.88;;;14.83;64.23
15314;BME280;7757;52.626;4.746;2023-01-29T11:41:55;102309.63;;;14.86;64.79
15314;BME280;7757;52.626;4.746;2023-01-29T11:44:28;102307.13;;;14.84;64.75
15314;BME280;7757;52.626;4.746;2023-01-29T11:46:58;102302.38;;;14.86;64.52
15314;BME280;7757;52.626;4.746;2023-01-29T11:49:34;102302.56;;;14.85;64.51
15314;BME280;7757;52.626;4.746;2023-01-29T11:52:03;102294.66;;;14.83;63.97
15314;BME280;7757;52.626;4.746;2023-01-29T11:54:35;102288.25;;;14.84;64.17
15314;BME280;7757;52.626;4.746;2023-01-29T11:57:19;102291.13;;;14.83;64.28
15314;BME280;7757;52.626;4.746;2023-01-29T11:59:49;102286.56;;;14.83;64.31
15314;BME280;7757;52.626;4.746;2023-01-29T12:02:27;102278.97;;;14.87;65.15
15314;BME280;7757;52.626;4.746;2023-01-29T12:04:58;102280.66;;;14.88;64.83
15314;BME280;7757;52.626;4.746;2023-01-29T12:07:26;102278.50;;;14.83;65.71
15314;BME280;7757;52.626;4.746;2023-01-29T12:09:55;102267.72;;;14.83;64.42
15314;BME280;7757;52.626;4.746;2023-01-29T12:12:29;102278.69;;;14.82;64.55
15314;BME280;7757;52.626;4.746;2023-01-29T12:17:56;102265.38;;;14.80;64.37
15314;BME280;7757;52.626;4.746;2023-01-29T12:20:29;102253.13;;;14.78;64.86
15314;BME280;7757;52.626;4.746;2023-01-29T12:23:02;102244.47;;;14.82;64.70
15314;BME280;7757;52.626;4.746;2023-01-29T12:25:39;102231.94;;;14.75;64.46
15314;BME280;7757;52.626;4.746;2023-01-29T12:28:17;102232.41;;;14.78;64.84
15314;BME280;7757;52.626;4.746;2023-01-29T12:30:52;102221.81;;;14.77;64.45
15314;BME280;7757;52.626;4.746;2023-01-29T12:33:37;102217.47;;;14.76;65.21
15314;BME280;7757;52.626;4.746;2023-01-29T12:36:09;102204.81;;;14.76;64.24
15314;BME280;7757;52.626;4.746;2023-01-29T12:38:39;102197.06;;;14.73;64.58
15314;BME280;7757;52.626;4.746;2023-01-29T12:41:12;102191.06;;;14.71;64.89
15314;BME280;7757;52.626;4.746;2023-01-29T12:43:49;102179.44;;;14.71;64.61
15314;BME280;7757;52.626;4.746;2023-01-29T12:46:24;102169.69;;;14.70;65.24
15314;BME280;7757;52.626;4.746;2023-01-29T12:48:52;102172.38;;;14.70;65.13
15314;BME280;7757;52.626;4.746;2023-01-29T12:51:24;102159.09;;;14.68;65.35
15314;BME280;7757;52.626;4.746;2023-01-29T12:53:55;102160.13;;;14.67;64.57
15314;BME280;7757;52.626;4.746;2023-01-29T12:56:27;102149.72;;;14.64;64.93
15314;BME280;7757;52.626;4.746;2023-01-29T12:58:58;102144.34;;;14.64;65.28
15314;BME280;7757;52.626;4.746;2023-01-29T13:01:28;102132.16;;;14.68;65.23
15314;BME280;7757;52.626;4.746;2023-01-29T13:04:00;102125.13;;;14.67;64.06
15314;BME280;7757;52.626;4.746;2023-01-29T13:06:32;102134.69;;;14.70;65.46
15314;BME280;7757;52.626;4.746;2023-01-29T13:09:02;102122.06;;;14.70;64.28
15314;BME280;7757;52.626;4.746;2023-01-29T13:11:34;102113.78;;;14.72;64.30
15314;BME280;7757;52.626;4.746;2023-01-29T13:14:11;102115.75;;;14.78;64.96
15314;BME280;7757;52.626;4.746;2023-01-29T13:16:41;102115.41;;;14.81;65.45
15314;BME280;7757;52.626;4.746;2023-01-29T13:19:18;102098.69;;;14.85;64.80
15314;BME280;7757;52.626;4.746;2023-01-29T13:21:49;102095.25;;;14.91;65.42
15314;BME280;7757;52.626;4.746;2023-01-29T13:24:19;102101.84;;;14.89;64.61
15314;BME280;7757;52.626;4.746;2023-01-29T13:26:48;102094.50;;;14.83;65.40
15314;BME280;7757;52.626;4.746;2023-01-29T13:29:22;102090.31;;;14.80;64.86